Alexander Bay, South Africa
Current Conditions -  °F | °C
As of 12:00 PM on Monday 22 Dec 2014 (Local Time) from FAUP Reporting Station
Few Clouds Few Clouds  
Wind Chill: 86°   Ceiling: Unl
Heat Index: 86°   Visibility: 6mi
Dew Point: 21°   Wind: 8mph
Humidity: 9%   Direction: 190°S
Pressure: 29.97"   Gusts: NA
Location:  28.6°S, 16.49°E
Report Text: FAUP 221000Z 19007KT 9999 FEW050 30/M06 Q1015 NOSIG
Loading
Personal Weather Stations






























Interactive Weather Map New forecast layout! Learn more

10-Day Weather Forecast

Advertisements
Track Severe Weather on mobile